Stellar Pacific — V2QR7 — position and weather

sailwx.info

Track history (hours):
 
Tides and Currents Weather Stations Pressure Air Temp Water Temp Dewpoint Dewpoint Depression Visibility Wind Speed Wind Dir Waves Ship Positions

Stellar Pacific

Last reported at 2018-Nov-07 05:10 UTC. Time now 2018-Nov-17 17:56 UTC.
Position N 51°22' W 003°13'.
Warning: this ship's position is 10 days out of date.

Length 135 m; draft 8.5 m.

Type: Cargo ship. MMSI: 304918000.

Date/timePositionNaut miles runAvg speedWind from/ knotsBaromVisibWave heightAir tempDewpointWater temp
2018-Nov-07 05:10N 51°22' W 003°13'47 8.0
2018-Nov-06 23:14N 51°18' W 004°29'2 9.0
2018-Nov-06 23:03N 51°18' W 004°31'3 8.9
2018-Nov-06 22:41N 51°18' W 004°36'6 8.4
2018-Nov-06 21:57N 51°16' W 004°46'4 7.7
2018-Nov-06 21:28N 51°14' W 004°51'3 8.0
2018-Nov-06 21:02N 51°12' W 004°55'1 7.9
2018-Nov-06 20:58N 51°12' W 004°56'5 8.1
2018-Nov-06 20:22N 51°08' W 005°00'3 8.4
2018-Nov-06 20:00N 51°05' W 005°02'4 8.3
2018-Nov-06 19:30N 51°01' W 005°05'3 7.5
2018-Nov-06 19:03N 50°58' W 005°07'0 7.6
2018-Nov-06 19:00N 50°58' W 005°07'2 4.7
2018-Nov-06 18:30N 50°56' W 005°10'2 5.0
2018-Nov-06 18:03N 50°54' W 005°11'0 7.8
2018-Nov-06 18:00N 50°53' W 005°12'4 8.3
2018-Nov-06 17:30N 50°50' W 005°15'4 9.5
2018-Nov-06 17:03N 50°46' W 005°18'0 9.9
2018-Nov-06 17:00N 50°46' W 005°19'610.3
2018-Nov-06 16:26N 50°42' W 005°26'510.6
2018-Nov-06 15:55N 50°38' W 005°32'  
2018-Nov-03 14:49N 39°27' W 009°50'410.8
2018-Nov-03 14:26N 39°23' W 009°50'410.8
2018-Nov-03 14:03N 39°19' W 009°50'110.8
2018-Nov-03 14:00N 39°18' W 009°50'510.8
2018-Nov-03 13:30N 39°13' W 009°50'510.7
2018-Nov-03 13:03N 39°08' W 009°51'110.6
2018-Nov-03 13:00N 39°07' W 009°51'510.1
2018-Nov-03 12:30N 39°02' W 009°51'510.3
2018-Nov-03 12:03N 38°58' W 009°51'110.2
2018-Nov-03 12:00N 38°57' W 009°51'510.5
2018-Nov-03 11:30N 38°52' W 009°51'510.6
2018-Nov-03 11:04N 38°47' W 009°51'110.4
2018-Nov-03 11:00N 38°47' W 009°51'510.1
2018-Nov-03 10:31N 38°42' W 009°51'510.0
2018-Nov-03 10:04N 38°37' W 009°49'110.1
2018-Nov-03 10:01N 38°37' W 009°49'5 9.9
2018-Nov-03 09:30N 38°32' W 009°48'4 9.7
2018-Nov-03 09:03N 38°28' W 009°47'0 9.8
2018-Nov-03 09:00N 38°27' W 009°46'5 9.4
2018-Nov-03 08:30N 38°23' W 009°45'4 9.2
2018-Nov-03 08:03N 38°19' W 009°44'0 9.4
2018-Nov-03 08:00N 38°18' W 009°44'5 9.5
2018-Nov-03 07:30N 38°14' W 009°42'5 9.6
2018-Nov-03 07:00N 38°09' W 009°41'5 9.2
2018-Nov-03 06:26N 38°04' W 009°39'4 9.7
2018-Nov-03 06:03N 38°00' W 009°38'0 9.8
2018-Nov-03 06:00N 37°60' W 009°38'19 9.7
2018-Nov-03 04:02N 37°41' W 009°33'210.0
2018-Nov-03 03:50N 37°39' W 009°32'66 9.4
2018-Nov-02 20:50N 36°41' W 008°54'410.8
2018-Nov-02 20:28N 36°40' W 008°49'  
Track history (hours):
 
Tides and Currents Weather Stations Pressure Air Temp Water Temp Dewpoint Dewpoint Depression Visibility Wind Speed Wind Dir Waves Ship Positions

Stellar Pacific

Last reported at 2018-Nov-07 05:10 UTC. Time now 2018-Nov-17 17:56 UTC.
Position N 51°22' W 003°13'.
Warning: this ship's position is 10 days out of date.

Length 135 m; draft 8.5 m.

Type: Cargo ship. MMSI: 304918000.

Date/timePositionNaut miles runAvg speedWind from/ knotsBaromVisibWave heightAir tempDewpointWater temp
2018-Nov-07 05:10N 51°22' W 003°13'47 8.0
2018-Nov-06 23:14N 51°18' W 004°29'2 9.0
2018-Nov-06 23:03N 51°18' W 004°31'3 8.9
2018-Nov-06 22:41N 51°18' W 004°36'6 8.4
2018-Nov-06 21:57N 51°16' W 004°46'4 7.7
2018-Nov-06 21:28N 51°14' W 004°51'3 8.0
2018-Nov-06 21:02N 51°12' W 004°55'1 7.9
2018-Nov-06 20:58N 51°12' W 004°56'5 8.1
2018-Nov-06 20:22N 51°08' W 005°00'3 8.4
2018-Nov-06 20:00N 51°05' W 005°02'4 8.3
2018-Nov-06 19:30N 51°01' W 005°05'3 7.5
2018-Nov-06 19:03N 50°58' W 005°07'0 7.6
2018-Nov-06 19:00N 50°58' W 005°07'2 4.7
2018-Nov-06 18:30N 50°56' W 005°10'2 5.0
2018-Nov-06 18:03N 50°54' W 005°11'0 7.8
2018-Nov-06 18:00N 50°53' W 005°12'4 8.3
2018-Nov-06 17:30N 50°50' W 005°15'4 9.5
2018-Nov-06 17:03N 50°46' W 005°18'0 9.9
2018-Nov-06 17:00N 50°46' W 005°19'610.3
2018-Nov-06 16:26N 50°42' W 005°26'510.6
2018-Nov-06 15:55N 50°38' W 005°32'  
2018-Nov-03 14:49N 39°27' W 009°50'410.8
2018-Nov-03 14:26N 39°23' W 009°50'410.8
2018-Nov-03 14:03N 39°19' W 009°50'110.8
2018-Nov-03 14:00N 39°18' W 009°50'510.8
2018-Nov-03 13:30N 39°13' W 009°50'510.7
2018-Nov-03 13:03N 39°08' W 009°51'110.6
2018-Nov-03 13:00N 39°07' W 009°51'510.1
2018-Nov-03 12:30N 39°02' W 009°51'510.3
2018-Nov-03 12:03N 38°58' W 009°51'110.2
2018-Nov-03 12:00N 38°57' W 009°51'510.5
2018-Nov-03 11:30N 38°52' W 009°51'510.6
2018-Nov-03 11:04N 38°47' W 009°51'110.4
2018-Nov-03 11:00N 38°47' W 009°51'510.1
2018-Nov-03 10:31N 38°42' W 009°51'510.0
2018-Nov-03 10:04N 38°37' W 009°49'110.1
2018-Nov-03 10:01N 38°37' W 009°49'5 9.9
2018-Nov-03 09:30N 38°32' W 009°48'4 9.7
2018-Nov-03 09:03N 38°28' W 009°47'0 9.8
2018-Nov-03 09:00N 38°27' W 009°46'5 9.4
2018-Nov-03 08:30N 38°23' W 009°45'4 9.2
2018-Nov-03 08:03N 38°19' W 009°44'0 9.4
2018-Nov-03 08:00N 38°18' W 009°44'5 9.5
2018-Nov-03 07:30N 38°14' W 009°42'5 9.6
2018-Nov-03 07:00N 38°09' W 009°41'5 9.2
2018-Nov-03 06:26N 38°04' W 009°39'4 9.7
2018-Nov-03 06:03N 38°00' W 009°38'0 9.8
2018-Nov-03 06:00N 37°60' W 009°38'19 9.7
2018-Nov-03 04:02N 37°41' W 009°33'210.0
2018-Nov-03 03:50N 37°39' W 009°32'66 9.4
2018-Nov-02 20:50N 36°41' W 008°54'410.8
2018-Nov-02 20:28N 36°40' W 008°49'  

Dump ship's entire track history